createdAt,value
2017-12-19T00:00:58.137Z,1.70
2017-12-19T00:01:59.499Z,1.57
2017-12-19T00:03:00.845Z,1.70
2017-12-19T00:04:02.177Z,1.70
2017-12-19T00:05:03.471Z,1.67
2017-12-19T00:06:04.809Z,1.80
2017-12-19T00:07:06.129Z,1.50
2017-12-19T00:08:07.465Z,1.63
2017-12-19T00:09:08.780Z,1.60
2017-12-19T00:10:10.107Z,1.50
2017-12-19T00:11:12.155Z,1.60
2017-12-19T00:12:14.225Z,1.43
2017-12-19T00:13:16.282Z,1.53
2017-12-19T00:14:18.326Z,1.77
2017-12-19T00:15:19.618Z,1.50
2017-12-19T00:16:20.967Z,1.60
2017-12-19T00:17:22.271Z,1.70
2017-12-19T00:18:24.675Z,1.70
2017-12-19T00:19:26.015Z,1.77
2017-12-19T00:20:27.342Z,1.60
2017-12-19T00:21:28.675Z,1.80
2017-12-19T00:22:38.979Z,1.83
2017-12-19T00:23:40.574Z,2.00
2017-12-19T00:24:42.643Z,1.70
2017-12-19T00:25:43.991Z,1.90
2017-12-19T00:26:45.324Z,1.93
2017-12-19T00:27:47.390Z,1.87
2017-12-19T00:28:49.786Z,1.83
2017-12-19T00:29:51.129Z,1.77
2017-12-19T00:30:52.419Z,1.87
2017-12-19T00:31:53.755Z,2.00
2017-12-19T00:32:55.067Z,1.80
2017-12-19T00:33:56.799Z,1.70
2017-12-19T00:34:58.123Z,1.90
2017-12-19T00:36:00.195Z,1.80
2017-12-19T00:37:01.515Z,2.00
2017-12-19T00:38:03.551Z,2.40
2017-12-19T00:39:05.205Z,2.57
2017-12-19T00:40:06.528Z,2.33
2017-12-19T00:41:07.870Z,2.30
2017-12-19T00:42:09.199Z,2.60
2017-12-19T00:43:10.531Z,2.30
2017-12-19T00:44:12.125Z,2.33
2017-12-19T00:45:13.423Z,2.00
2017-12-19T00:46:14.731Z,1.90
2017-12-19T00:47:16.774Z,1.97
2017-12-19T00:48:18.069Z,2.10
2017-12-19T00:49:19.642Z,1.87
2017-12-19T00:50:20.985Z,2.03
2017-12-19T00:51:22.317Z,1.70
2017-12-19T00:52:23.683Z,1.80
2017-12-19T00:53:25.751Z,2.00
2017-12-19T00:54:27.359Z,2.00
2017-12-19T00:55:28.723Z,1.90
2017-12-19T00:56:30.044Z,1.90
2017-12-19T00:57:31.359Z,1.90
2017-12-19T00:58:33.406Z,1.83
2017-12-19T00:59:35.003Z,1.77
2017-12-19T01:00:36.311Z,1.67
2017-12-19T01:01:38.349Z,1.70
2017-12-19T01:02:39.687Z,1.90
2017-12-19T01:03:41.003Z,1.80
2017-12-19T01:04:42.591Z,2.10
2017-12-19T01:05:43.910Z,3.67
2017-12-19T01:06:45.235Z,3.20
2017-12-19T01:07:46.573Z,3.23
2017-12-19T01:08:47.879Z,2.97
2017-12-19T01:09:49.943Z,2.20
2017-12-19T01:10:52.015Z,1.93
2017-12-19T01:11:53.342Z,1.97
2017-12-19T01:12:55.371Z,1.90
2017-12-19T01:13:57.450Z,1.90
2017-12-19T01:14:59.023Z,1.83
2017-12-19T01:16:01.067Z,1.90
2017-12-19T01:17:03.103Z,2.00
2017-12-19T01:18:04.421Z,2.50
2017-12-19T01:19:05.710Z,2.07
2017-12-19T01:20:08.024Z,2.70
2017-12-19T01:21:09.329Z,2.30
2017-12-19T01:22:11.350Z,2.73
2017-12-19T01:23:12.644Z,4.03
2017-12-19T01:24:13.925Z,3.90
2017-12-19T01:25:15.560Z,3.67
2017-12-19T01:26:16.834Z,3.70
2017-12-19T01:27:18.200Z,3.83
2017-12-19T01:28:19.531Z,4.30
2017-12-19T01:29:20.833Z,4.83
2017-12-19T01:30:22.167Z,6.20
2017-12-19T01:31:24.214Z,5.70
2017-12-19T01:32:26.263Z,5.07
2017-12-19T01:33:28.293Z,4.70
2017-12-19T01:34:29.585Z,4.10
2017-12-19T01:35:31.109Z,4.57
2017-12-19T01:36:33.143Z,4.67
2017-12-19T01:37:34.445Z,3.87
2017-12-19T01:38:35.734Z,4.10
2017-12-19T01:39:37.031Z,3.70
2017-12-19T01:40:38.354Z,4.13
2017-12-19T01:41:39.647Z,3.17
2017-12-19T01:42:40.935Z,2.40
2017-12-19T01:43:42.252Z,2.17
2017-12-19T01:44:43.543Z,1.60
2017-12-19T01:45:45.059Z,1.77
2017-12-19T01:46:47.087Z,1.77
2017-12-19T01:47:48.391Z,1.60
2017-12-19T01:48:49.701Z,1.40
2017-12-19T01:49:51.744Z,1.60
2017-12-19T01:50:53.324Z,1.70
2017-12-19T01:51:54.613Z,1.53
2017-12-19T01:52:55.910Z,1.40
2017-12-19T01:53:57.206Z,1.60
2017-12-19T01:54:58.486Z,1.50
2017-12-19T01:56:00.791Z,1.60
2017-12-19T01:57:02.081Z,1.60
2017-12-19T01:58:04.120Z,1.70
2017-12-19T01:59:05.411Z,1.40
2017-12-19T02:00:06.699Z,1.77
2017-12-19T02:01:08.266Z,1.40
2017-12-19T02:02:09.546Z,1.50
2017-12-19T02:03:10.846Z,1.50
2017-12-19T02:04:12.131Z,1.40
2017-12-19T02:05:13.418Z,1.33
2017-12-19T02:06:15.013Z,1.50
2017-12-19T02:07:16.314Z,1.23
2017-12-19T02:08:17.610Z,1.63
2017-12-19T02:09:18.912Z,1.80
2017-12-19T02:10:20.199Z,1.60
2017-12-19T02:11:21.771Z,1.60
2017-12-19T02:12:23.079Z,1.50
2017-12-19T02:13:24.368Z,1.73
2017-12-19T02:14:25.654Z,2.07
2017-12-19T02:15:27.724Z,2.03
2017-12-19T02:16:29.321Z,1.90
2017-12-19T02:17:30.673Z,1.80
2017-12-19T02:18:31.991Z,1.87
2017-12-19T02:19:33.357Z,1.60
2017-12-19T02:20:35.465Z,1.50
2017-12-19T02:21:37.128Z,1.57
2017-12-19T02:22:38.452Z,1.63
2017-12-19T02:23:39.771Z,1.70
2017-12-19T02:24:41.091Z,1.70
2017-12-19T02:25:42.404Z,1.70
2017-12-19T02:26:44.046Z,1.83
2017-12-19T02:27:45.364Z,1.47
2017-12-19T02:28:47.419Z,1.50
2017-12-19T02:29:48.734Z,1.70
2017-12-19T02:30:50.075Z,1.60
2017-12-19T02:31:51.675Z,1.70
2017-12-19T02:32:53.746Z,1.70
2017-12-19T02:33:55.810Z,2.00
2017-12-19T02:34:57.866Z,1.90
2017-12-19T02:35:59.938Z,1.90
2017-12-19T02:37:01.556Z,1.70
2017-12-19T02:38:02.877Z,1.87
2017-12-19T02:39:04.209Z,1.90
2017-12-19T02:40:05.542Z,1.67
2017-12-19T02:41:06.872Z,2.00
2017-12-19T02:42:08.203Z,1.93
2017-12-19T02:43:21.507Z,1.60
2017-12-19T02:44:23.591Z,1.60
2017-12-19T02:45:24.898Z,1.87
2017-12-19T02:46:26.239Z,1.63
2017-12-19T02:47:27.850Z,1.50
2017-12-19T02:48:29.186Z,1.50
2017-12-19T02:49:30.511Z,1.30
2017-12-19T02:50:31.840Z,1.30
2017-12-19T02:51:33.924Z,1.30
2017-12-19T02:52:35.256Z,1.57
2017-12-19T02:53:36.609Z,1.20
2017-12-19T02:54:37.938Z,1.20
2017-12-19T02:55:39.983Z,1.20
2017-12-19T02:56:41.321Z,1.40
2017-12-19T02:57:42.873Z,1.53
2017-12-19T02:58:44.195Z,1.30
2017-12-19T02:59:45.544Z,1.40
2017-12-19T03:00:46.871Z,1.53
2017-12-19T03:01:48.187Z,1.50
2017-12-19T03:02:49.803Z,1.50
2017-12-19T03:03:51.849Z,1.60
2017-12-19T03:04:53.176Z,1.60
2017-12-19T03:05:54.505Z,1.50
2017-12-19T03:06:56.356Z,1.47
2017-12-19T03:07:57.951Z,1.57
2017-12-19T03:09:00.039Z,1.60
2017-12-19T03:10:01.343Z,1.50
2017-12-19T03:11:02.669Z,1.30
2017-12-19T03:12:04.014Z,1.40
2017-12-19T03:13:06.343Z,1.67
2017-12-19T03:14:07.661Z,1.30
2017-12-19T03:15:09.715Z,1.60
2017-12-19T03:16:11.771Z,1.60
2017-12-19T03:17:13.096Z,1.47
2017-12-19T03:18:14.689Z,1.40
2017-12-19T03:19:16.002Z,1.40
2017-12-19T03:20:17.320Z,1.30
2017-12-19T03:21:18.618Z,1.20
2017-12-19T03:22:19.939Z,1.20
2017-12-19T03:23:22.300Z,1.20
2017-12-19T03:24:24.353Z,1.30
2017-12-19T03:25:25.705Z,1.50
2017-12-19T03:26:27.022Z,1.60
2017-12-19T03:27:28.375Z,1.63
2017-12-19T03:28:29.981Z,1.40
2017-12-19T03:29:31.297Z,1.50
2017-12-19T03:30:33.360Z,1.60
2017-12-19T03:31:35.429Z,1.40
2017-12-19T03:32:36.751Z,1.30
2017-12-19T03:33:38.360Z,1.20
2017-12-19T03:34:39.651Z,1.30
2017-12-19T03:35:41.719Z,1.30
2017-12-19T03:36:43.783Z,1.30
2017-12-19T03:37:45.832Z,1.50
2017-12-19T03:38:47.417Z,1.17
2017-12-19T03:39:48.735Z,1.50
2017-12-19T03:40:50.063Z,1.70
2017-12-19T03:41:51.365Z,1.50
2017-12-19T03:42:52.688Z,1.40
2017-12-19T03:43:55.029Z,2.00
2017-12-19T03:44:56.335Z,1.90
2017-12-19T03:45:57.651Z,1.67
2017-12-19T03:46:59.005Z,1.80
2017-12-19T03:48:00.334Z,1.70
2017-12-19T03:49:02.668Z,1.70
2017-12-19T03:50:03.977Z,1.50
2017-12-19T03:51:05.301Z,1.60
2017-12-19T03:52:06.623Z,1.80
2017-12-19T03:53:08.679Z,1.70
2017-12-19T03:54:11.067Z,2.07
2017-12-19T03:55:13.113Z,1.90
2017-12-19T03:56:15.170Z,1.97
2017-12-19T03:57:17.247Z,1.90
2017-12-19T03:58:18.579Z,1.90
2017-12-19T03:59:20.907Z,1.53
2017-12-19T04:00:22.219Z,1.80
2017-12-19T04:01:23.529Z,1.80
2017-12-19T04:02:25.579Z,1.60
2017-12-19T04:03:27.642Z,1.73
2017-12-19T04:04:30.003Z,1.60
2017-12-19T04:05:31.318Z,1.80
2017-12-19T04:06:32.631Z,1.50
2017-12-19T04:07:33.953Z,1.87
2017-12-19T04:08:36.015Z,1.50
2017-12-19T04:09:37.383Z,1.63
2017-12-19T04:10:38.691Z,1.83
2017-12-19T04:11:40.753Z,1.63
2017-12-19T04:12:42.827Z,1.80
2017-12-19T04:13:44.135Z,1.90
2017-12-19T04:14:45.723Z,1.73
2017-12-19T04:15:47.053Z,2.80
2017-12-19T04:16:49.127Z,3.80
2017-12-19T04:17:51.227Z,3.50
2017-12-19T04:18:52.542Z,2.80
2017-12-19T04:19:54.204Z,2.80
2017-12-19T04:20:55.549Z,2.20
2017-12-19T04:21:56.889Z,1.90
2017-12-19T04:22:58.211Z,2.10
2017-12-19T04:24:00.276Z,2.20
2017-12-19T04:25:02.615Z,2.40
2017-12-19T04:26:03.929Z,2.20
2017-12-19T04:27:05.999Z,2.20
2017-12-19T04:28:07.375Z,2.20
2017-12-19T04:29:09.438Z,2.13
2017-12-19T04:30:11.779Z,2.00
2017-12-19T04:31:13.122Z,2.47
2017-12-19T04:32:14.458Z,1.90
2017-12-19T04:33:15.790Z,1.90
2017-12-19T04:34:17.139Z,1.87
2017-12-19T04:35:18.760Z,1.77
2017-12-19T04:36:20.103Z,2.10
2017-12-19T04:37:21.425Z,1.90
2017-12-19T04:38:23.479Z,2.07
2017-12-19T04:39:25.547Z,2.00
2017-12-19T04:40:27.891Z,2.00
2017-12-19T04:41:29.235Z,2.00
2017-12-19T04:42:30.567Z,2.00
2017-12-19T04:43:31.889Z,2.00
2017-12-19T04:44:33.227Z,2.07
2017-12-19T04:45:34.863Z,1.80
2017-12-19T04:46:36.187Z,2.07
2017-12-19T04:47:37.506Z,2.13
2017-12-19T04:48:39.559Z,1.90
2017-12-19T04:49:40.883Z,2.90
2017-12-19T04:50:42.463Z,3.40
2017-12-19T04:51:44.529Z,3.47
2017-12-19T04:52:46.603Z,3.70
2017-12-19T04:53:48.677Z,3.30
2017-12-19T04:54:50.052Z,2.40
2017-12-19T04:55:51.631Z,2.30
2017-12-19T04:56:52.968Z,2.30
2017-12-19T04:57:54.306Z,2.70
2017-12-19T04:58:55.631Z,2.77
2017-12-19T04:59:56.967Z,2.43
2017-12-19T05:00:58.319Z,2.33
2017-12-19T05:01:59.635Z,2.33
2017-12-19T05:03:01.000Z,2.20
2017-12-19T05:04:02.331Z,2.40
2017-12-19T05:05:03.651Z,2.40
2017-12-19T05:06:05.011Z,2.43
2017-12-19T05:07:06.311Z,2.73
2017-12-19T05:08:07.630Z,2.57
2017-12-19T05:09:08.963Z,2.80
2017-12-19T05:10:10.307Z,2.20
2017-12-19T05:11:12.030Z,2.33
2017-12-19T05:12:13.357Z,2.00
2017-12-19T05:13:14.695Z,2.10
2017-12-19T05:14:16.758Z,2.10
2017-12-19T05:15:18.845Z,2.13
2017-12-19T05:16:20.185Z,2.00
2017-12-19T05:17:21.511Z,1.90
2017-12-19T05:18:23.591Z,1.83
2017-12-19T05:19:24.904Z,2.27
2017-12-19T05:20:26.975Z,1.90
2017-12-19T05:21:28.319Z,1.70
2017-12-19T05:22:29.653Z,1.97
2017-12-19T05:23:31.743Z,2.50
2017-12-19T05:24:33.069Z,2.30
2017-12-19T05:25:34.379Z,2.17
2017-12-19T05:26:36.079Z,2.20
2017-12-19T05:27:37.406Z,2.50
2017-12-19T05:28:38.747Z,2.40
2017-12-19T05:29:40.071Z,2.17
2017-12-19T05:30:42.125Z,2.60
2017-12-19T05:31:43.728Z,2.37
2017-12-19T05:32:45.073Z,2.63
2017-12-19T05:33:46.411Z,3.00
2017-12-19T05:34:47.731Z,3.23
2017-12-19T05:35:49.796Z,3.60
2017-12-19T05:36:52.150Z,4.07
2017-12-19T05:37:54.215Z,4.53
2017-12-19T05:38:56.279Z,4.43
2017-12-19T05:39:58.339Z,4.03
2017-12-19T05:41:00.395Z,4.00
2017-12-19T05:42:02.486Z,2.97
2017-12-19T05:43:03.811Z,2.70
2017-12-19T05:44:05.889Z,2.33
2017-12-19T05:45:07.231Z,2.10
2017-12-19T05:46:08.557Z,2.00
2017-12-19T05:47:10.645Z,2.10
2017-12-19T05:48:11.987Z,2.90
2017-12-19T05:49:13.305Z,1.97
2017-12-19T05:50:15.404Z,1.93
2017-12-19T05:51:16.718Z,2.13
2017-12-19T05:52:18.331Z,2.40
2017-12-19T05:53:19.676Z,2.10
2017-12-19T05:54:21.027Z,2.20
2017-12-19T05:55:22.359Z,3.00
2017-12-19T05:56:23.683Z,3.33
2017-12-19T05:57:25.035Z,4.87
2017-12-19T05:58:26.359Z,6.87
2017-12-19T05:59:27.685Z,7.10
2017-12-19T06:00:29.019Z,4.63
2017-12-19T06:01:31.084Z,3.20
2017-12-19T06:02:32.712Z,2.77
2017-12-19T06:03:34.032Z,2.13
2017-12-19T06:04:36.106Z,2.10
2017-12-19T06:05:37.439Z,1.90
2017-12-19T06:06:38.756Z,2.00
2017-12-19T06:07:40.095Z,2.33
2017-12-19T06:08:41.407Z,2.50
2017-12-19T06:09:44.133Z,2.23
2017-12-19T06:10:45.476Z,2.90
2017-12-19T06:11:46.814Z,2.57
2017-12-19T06:12:48.155Z,2.37
2017-12-19T06:13:49.479Z,2.27
2017-12-19T06:14:50.817Z,2.40
2017-12-19T06:15:52.145Z,2.30
2017-12-19T06:16:54.221Z,2.17
2017-12-19T06:17:55.556Z,2.30
2017-12-19T06:18:56.875Z,2.33
2017-12-19T06:19:58.939Z,2.50
2017-12-19T06:21:01.019Z,2.20
2017-12-19T06:22:02.351Z,2.20
2017-12-19T06:23:04.418Z,2.17
2017-12-19T06:24:06.478Z,2.00
2017-12-19T06:25:08.539Z,2.23
2017-12-19T06:26:10.625Z,2.00
2017-12-19T06:27:11.945Z,2.20
2017-12-19T06:28:13.535Z,2.03
2017-12-19T06:29:14.875Z,2.20
2017-12-19T06:30:16.199Z,2.13
2017-12-19T06:31:17.519Z,1.93
2017-12-19T06:32:19.578Z,2.20
2017-12-19T06:33:21.671Z,2.10
2017-12-19T06:34:22.990Z,2.43
2017-12-19T06:35:24.327Z,2.17
2017-12-19T06:36:26.413Z,2.10
2017-12-19T06:37:27.743Z,1.80
2017-12-19T06:38:29.086Z,2.33
2017-12-19T06:39:30.415Z,2.00
2017-12-19T06:40:32.469Z,2.40
2017-12-19T06:41:34.557Z,2.20
2017-12-19T06:42:35.885Z,2.33
2017-12-19T06:43:38.216Z,2.00
2017-12-19T06:44:39.523Z,2.03
2017-12-19T06:45:40.843Z,2.47
2017-12-19T06:46:42.156Z,2.60
2017-12-19T06:47:43.491Z,2.40
2017-12-19T06:48:44.829Z,2.37
2017-12-19T06:49:46.161Z,2.13
2017-12-19T06:50:47.491Z,2.20
2017-12-19T06:51:48.808Z,2.30
2017-12-19T06:52:50.136Z,2.23
2017-12-19T06:53:52.244Z,2.20
2017-12-19T06:54:53.559Z,2.20
2017-12-19T06:55:54.883Z,2.40
2017-12-19T06:56:56.963Z,2.67
2017-12-19T06:57:58.307Z,2.33
2017-12-19T06:58:59.916Z,2.40
2017-12-19T07:00:01.257Z,2.90
2017-12-19T07:01:02.579Z,2.70
2017-12-19T07:02:03.906Z,3.00
2017-12-19T07:03:05.225Z,2.83
2017-12-19T07:04:06.580Z,3.30
2017-12-19T07:05:07.907Z,3.40
2017-12-19T07:06:09.229Z,3.13
2017-12-19T07:07:11.303Z,3.27
2017-12-19T07:08:12.643Z,3.50
2017-12-19T07:09:14.720Z,3.57
2017-12-19T07:10:16.058Z,3.70
2017-12-19T07:11:17.385Z,4.00
2017-12-19T07:12:19.456Z,4.20
2017-12-19T07:13:21.539Z,3.73
2017-12-19T07:14:23.115Z,4.10
2017-12-19T07:15:24.441Z,3.93
2017-12-19T07:16:25.760Z,4.53
2017-12-19T07:17:27.083Z,4.50
2017-12-19T07:18:29.147Z,5.10
2017-12-19T07:19:31.252Z,4.60
2017-12-19T07:20:32.579Z,4.50
2017-12-19T07:21:33.903Z,5.00
2017-12-19T07:22:36.787Z,4.90
2017-12-19T07:23:38.864Z,4.93
2017-12-19T07:24:40.471Z,5.30
2017-12-19T07:25:41.783Z,4.93
2017-12-19T07:26:43.124Z,5.03
2017-12-19T07:27:44.443Z,5.30
2017-12-19T07:28:45.775Z,4.80
2017-12-19T07:29:47.173Z,5.30
2017-12-19T07:30:48.492Z,5.20
2017-12-19T07:31:49.813Z,5.03
2017-12-19T07:32:51.174Z,4.97
2017-12-19T07:33:53.231Z,5.13
2017-12-19T07:34:54.656Z,4.50
2017-12-19T07:35:55.935Z,5.47
2017-12-19T07:36:57.268Z,4.90
2017-12-19T07:37:58.584Z,4.97
2017-12-19T07:38:59.924Z,4.83
2017-12-19T07:40:01.279Z,5.13
2017-12-19T07:41:02.596Z,4.70
2017-12-19T07:42:04.683Z,3.67
2017-12-19T07:43:06.013Z,3.77
2017-12-19T07:44:07.335Z,3.60
2017-12-19T07:45:09.427Z,3.83
2017-12-19T07:46:10.747Z,3.70
2017-12-19T07:47:12.776Z,3.70
2017-12-19T07:48:14.092Z,3.53
2017-12-19T07:49:15.416Z,3.70
2017-12-19T07:50:16.763Z,3.80
2017-12-19T07:51:18.079Z,4.00
2017-12-19T07:52:20.134Z,3.70
2017-12-19T07:53:22.212Z,5.10
2017-12-19T07:54:24.244Z,5.83
2017-12-19T07:55:25.570Z,6.13
2017-12-19T07:56:26.885Z,6.30
2017-12-19T07:57:28.221Z,6.43
2017-12-19T07:58:29.552Z,6.20
2017-12-19T07:59:30.867Z,4.83
2017-12-19T08:00:33.171Z,4.50
2017-12-19T08:01:34.485Z,4.00
2017-12-19T08:02:36.536Z,3.47
2017-12-19T08:03:38.611Z,3.20
2017-12-19T08:04:40.680Z,2.73
2017-12-19T08:05:42.036Z,2.97
2017-12-19T08:06:43.345Z,2.60
2017-12-19T08:07:45.383Z,2.50
2017-12-19T08:08:46.691Z,2.60
2017-12-19T08:09:47.992Z,2.30
2017-12-19T08:10:50.279Z,2.10
2017-12-19T08:11:51.603Z,2.40
2017-12-19T08:12:53.659Z,2.10
2017-12-19T08:13:54.972Z,2.50
2017-12-19T08:14:56.267Z,2.20
2017-12-19T08:15:57.615Z,2.40
2017-12-19T08:16:58.972Z,2.50
2017-12-19T08:18:00.312Z,3.27
2017-12-19T08:19:01.648Z,3.33
2017-12-19T08:20:03.002Z,3.47
2017-12-19T08:21:04.324Z,3.10
2017-12-19T08:22:06.376Z,3.10
2017-12-19T08:23:08.412Z,2.80
2017-12-19T08:24:09.731Z,3.57
2017-12-19T08:25:11.051Z,3.87
2017-12-19T08:26:12.504Z,3.47
2017-12-19T08:27:13.820Z,2.90
2017-12-19T08:28:15.122Z,3.00
2017-12-19T08:29:16.403Z,3.00
2017-12-19T08:30:18.503Z,3.90
2017-12-19T08:31:19.847Z,5.07
2017-12-19T08:32:21.159Z,4.93
2017-12-19T08:33:22.475Z,4.37
2017-12-19T08:34:23.764Z,3.70
2017-12-19T08:35:25.064Z,3.10
2017-12-19T08:36:27.147Z,3.10
2017-12-19T08:37:28.448Z,3.10
2017-12-19T08:38:29.728Z,2.50
2017-12-19T08:39:31.028Z,2.87
2017-12-19T08:40:32.332Z,3.03
2017-12-19T08:41:34.694Z,3.27
2017-12-19T08:42:36.020Z,3.87
2017-12-19T08:43:38.056Z,4.17
2017-12-19T08:44:39.352Z,4.07
2017-12-19T08:45:40.643Z,3.83
2017-12-19T08:46:41.956Z,3.97
2017-12-19T08:47:43.283Z,4.73
2017-12-19T08:48:44.600Z,4.60
2017-12-19T08:49:45.896Z,3.90
2017-12-19T08:50:47.189Z,3.90
2017-12-19T08:51:48.845Z,3.87
2017-12-19T08:52:50.172Z,3.87
2017-12-19T08:53:51.480Z,3.50
2017-12-19T08:54:52.791Z,3.57
2017-12-19T08:55:54.111Z,3.00
2017-12-19T08:56:55.432Z,2.83
2017-12-19T08:57:57.464Z,3.07
2017-12-19T08:58:58.755Z,2.70
2017-12-19T09:00:00.060Z,2.77
2017-12-19T09:01:01.355Z,2.70
2017-12-19T09:02:02.676Z,2.70
2017-12-19T09:03:03.980Z,2.50
2017-12-19T09:04:05.280Z,3.13
2017-12-19T09:05:06.572Z,2.87
2017-12-19T09:06:07.896Z,3.13
2017-12-19T09:07:09.200Z,2.90
2017-12-19T09:08:10.529Z,3.07
2017-12-19T09:09:12.561Z,2.70
2017-12-19T09:10:13.885Z,2.90
2017-12-19T09:11:15.170Z,2.60
2017-12-19T09:12:17.363Z,3.03
2017-12-19T09:13:18.652Z,2.70
2017-12-19T09:14:19.956Z,2.90
2017-12-19T09:15:21.251Z,3.10
2017-12-19T09:16:23.298Z,2.70
2017-12-19T09:17:24.892Z,2.50
2017-12-19T09:18:26.175Z,2.77
2017-12-19T09:19:27.463Z,2.50
2017-12-19T09:20:28.759Z,2.73
2017-12-19T09:21:30.053Z,2.70
2017-12-19T09:22:31.607Z,2.40
2017-12-19T09:23:32.907Z,2.60
2017-12-19T09:24:34.192Z,2.60
2017-12-19T09:25:35.481Z,2.70
2017-12-19T09:26:36.760Z,2.60
2017-12-19T09:27:38.808Z,2.50
2017-12-19T09:28:40.864Z,2.53
2017-12-19T09:29:42.892Z,2.30
2017-12-19T09:30:44.198Z,2.40
2017-12-19T09:31:45.495Z,2.40
2017-12-19T09:32:47.101Z,2.53
2017-12-19T09:33:48.391Z,2.37
2017-12-19T09:34:49.702Z,2.40
2017-12-19T09:35:50.987Z,2.20
2017-12-19T09:36:53.024Z,2.43
2017-12-19T09:37:54.334Z,2.53
2017-12-19T09:38:55.751Z,3.10
2017-12-19T09:39:57.016Z,4.57
2017-12-19T09:40:58.316Z,4.87
2017-12-19T09:42:00.351Z,4.63
2017-12-19T09:43:01.963Z,3.83
2017-12-19T09:44:03.256Z,3.70
2017-12-19T09:45:04.560Z,3.90
2017-12-19T09:46:05.852Z,3.57
2017-12-19T09:47:07.879Z,3.77
2017-12-19T09:48:09.499Z,3.53
2017-12-19T09:49:10.799Z,4.07
2017-12-19T09:50:12.088Z,7.00
2017-12-19T09:51:13.385Z,14.90
2017-12-19T09:52:14.687Z,12.63
2017-12-19T09:53:16.260Z,10.50
2017-12-19T09:54:18.322Z,11.00
2017-12-19T09:55:19.617Z,12.13
2017-12-19T09:56:20.916Z,40.17
2017-12-19T09:57:22.231Z,94.50
2017-12-19T09:58:23.544Z,105.40
2017-12-19T09:59:24.844Z,105.47
2017-12-19T10:00:26.147Z,94.67
2017-12-19T10:01:27.439Z,92.50
2017-12-19T10:02:29.475Z,86.93
2017-12-19T10:03:31.092Z,89.03
2017-12-19T10:04:32.392Z,55.07
2017-12-19T10:05:34.422Z,27.07
2017-12-19T10:06:35.726Z,20.80
2017-12-19T10:07:37.012Z,16.83
2017-12-19T10:08:38.328Z,16.30
2017-12-19T10:09:39.624Z,12.30
2017-12-19T10:10:41.652Z,10.97
2017-12-19T10:11:42.936Z,6.70
2017-12-19T10:12:44.959Z,6.30
2017-12-19T10:13:46.517Z,5.87
2017-12-19T10:14:47.812Z,6.03
2017-12-19T10:15:49.103Z,5.27
2017-12-19T10:16:51.159Z,4.97
2017-12-19T10:17:52.450Z,4.83
2017-12-19T10:18:53.796Z,4.80
2017-12-19T10:19:55.111Z,4.90
2017-12-19T10:20:57.172Z,4.97
2017-12-19T10:21:59.296Z,4.60
2017-12-19T10:23:00.612Z,4.77
2017-12-19T10:24:02.256Z,5.07
2017-12-19T10:25:03.603Z,5.43
2017-12-19T10:26:04.924Z,5.33
2017-12-19T10:27:06.988Z,5.57
2017-12-19T10:28:08.300Z,5.07
2017-12-19T10:29:09.920Z,5.97
2017-12-19T10:30:11.244Z,5.63
2017-12-19T10:31:12.620Z,5.80
2017-12-19T10:32:13.936Z,5.93
2017-12-19T10:33:15.257Z,6.90
2017-12-19T10:34:16.616Z,6.50
2017-12-19T10:35:17.932Z,6.70
2017-12-19T10:36:19.980Z,6.97
2017-12-19T10:37:22.048Z,6.03
2017-12-19T10:38:24.136Z,5.97
2017-12-19T10:39:25.465Z,5.83
2017-12-19T10:40:26.783Z,5.50
2017-12-19T10:41:28.131Z,5.47
2017-12-19T10:42:30.184Z,5.73
2017-12-19T10:43:31.488Z,5.23
2017-12-19T10:44:33.120Z,5.20
2017-12-19T10:45:34.430Z,5.50
2017-12-19T10:46:36.475Z,5.30
2017-12-19T10:47:37.790Z,6.00
2017-12-19T10:48:39.812Z,6.03
2017-12-19T10:49:41.369Z,5.70
2017-12-19T10:50:42.665Z,5.90
2017-12-19T10:51:43.956Z,6.07
2017-12-19T10:52:45.233Z,6.00
2017-12-19T10:53:46.522Z,7.07
2017-12-19T10:54:48.576Z,8.13
2017-12-19T10:55:50.610Z,7.47
2017-12-19T10:56:51.896Z,7.13
2017-12-19T10:57:53.188Z,7.47
2017-12-19T10:58:54.467Z,7.43
2017-12-19T10:59:56.772Z,8.10
2017-12-19T11:00:58.089Z,8.13
2017-12-19T11:01:59.439Z,8.07
2017-12-19T11:03:00.731Z,8.07
2017-12-19T11:04:02.024Z,8.03
2017-12-19T11:05:03.678Z,7.90
2017-12-19T11:06:05.000Z,8.00
2017-12-19T11:07:07.446Z,7.10
2017-12-19T11:08:08.723Z,7.40
2017-12-19T11:09:10.030Z,7.27
2017-12-19T11:10:11.452Z,6.33
2017-12-19T11:11:12.735Z,6.13
2017-12-19T11:12:14.768Z,6.17
2017-12-19T11:13:16.056Z,6.40
2017-12-19T11:14:17.355Z,6.67
2017-12-19T11:15:18.960Z,6.50
2017-12-19T11:16:20.264Z,6.40
2017-12-19T11:17:22.287Z,6.20
2017-12-19T11:18:23.604Z,6.50
2017-12-19T11:19:24.887Z,5.43
2017-12-19T11:20:26.528Z,5.50
2017-12-19T11:21:27.800Z,5.30
2017-12-19T11:22:29.871Z,5.67
2017-12-19T11:23:31.940Z,5.87
2017-12-19T11:24:33.280Z,6.10
2017-12-19T11:25:35.672Z,6.53
2017-12-19T11:26:37.004Z,6.77
2017-12-19T11:27:38.330Z,6.23
2017-12-19T11:28:39.668Z,6.27
2017-12-19T11:29:41.744Z,5.80
2017-12-19T11:30:43.427Z,5.50
2017-12-19T11:31:44.800Z,5.60
2017-12-19T11:32:46.124Z,5.10
2017-12-19T11:33:47.452Z,5.13
2017-12-19T11:34:48.814Z,5.47
2017-12-19T11:35:51.146Z,5.77
2017-12-19T11:36:52.464Z,8.03
2017-12-19T11:37:54.512Z,13.30
2017-12-19T11:38:55.839Z,9.13
2017-12-19T11:39:57.180Z,9.47
2017-12-19T11:40:58.520Z,9.80
2017-12-19T11:41:59.832Z,9.97
2017-12-19T11:43:01.148Z,11.13
2017-12-19T11:44:03.200Z,8.70
2017-12-19T11:45:05.255Z,7.30
2017-12-19T11:46:07.348Z,6.70
2017-12-19T11:47:08.652Z,6.17
2017-12-19T11:48:09.956Z,5.60
2017-12-19T11:49:11.252Z,6.43
2017-12-19T11:50:13.328Z,5.80
2017-12-19T11:51:14.673Z,6.10
2017-12-19T11:52:16.000Z,5.87
2017-12-19T11:53:18.063Z,5.47
2017-12-19T11:54:20.119Z,5.90
2017-12-19T11:55:22.192Z,5.27
2017-12-19T11:56:23.527Z,5.10
2017-12-19T11:57:25.584Z,5.10
2017-12-19T11:58:27.638Z,5.20
2017-12-19T11:59:29.680Z,5.30
2017-12-19T12:00:31.011Z,5.13
2017-12-19T12:01:32.352Z,5.37
2017-12-19T12:02:33.708Z,4.90
2017-12-19T12:03:34.995Z,5.13
2017-12-19T12:04:36.332Z,5.10
2017-12-19T12:05:37.652Z,5.80
2017-12-19T12:06:39.747Z,5.27
2017-12-19T12:07:41.040Z,5.67
2017-12-19T12:08:42.344Z,6.10
2017-12-19T12:09:43.684Z,5.60
2017-12-19T12:10:45.000Z,5.40
2017-12-19T12:11:47.064Z,5.40
2017-12-19T12:12:48.392Z,5.17
2017-12-19T12:13:50.438Z,4.80
2017-12-19T12:14:51.770Z,5.10
2017-12-19T12:15:53.080Z,5.40
2017-12-19T12:16:54.371Z,5.47
2017-12-19T12:17:55.659Z,5.53
2017-12-19T12:18:56.964Z,5.80
2017-12-19T12:19:59.004Z,5.50
2017-12-19T12:21:00.302Z,6.53
2017-12-19T12:22:01.643Z,5.83
2017-12-19T12:23:02.964Z,6.10
2017-12-19T12:24:05.040Z,5.87
2017-12-19T12:25:06.369Z,6.33
2017-12-19T12:26:08.429Z,6.07
2017-12-19T12:27:10.519Z,6.30
2017-12-19T12:28:11.856Z,5.80
2017-12-19T12:29:13.153Z,6.43
2017-12-19T12:30:14.449Z,7.17
2017-12-19T12:31:15.764Z,6.80
2017-12-19T12:32:17.868Z,6.87
2017-12-19T12:33:19.194Z,6.90
2017-12-19T12:34:20.491Z,6.67
2017-12-19T12:35:21.820Z,6.00
2017-12-19T12:36:23.149Z,6.70
2017-12-19T12:37:24.512Z,7.30
2017-12-19T12:38:25.847Z,6.40
2017-12-19T12:39:27.172Z,6.70
2017-12-19T12:40:28.495Z,7.07
2017-12-19T12:41:29.812Z,6.50
2017-12-19T12:42:31.893Z,7.07
2017-12-19T12:43:33.928Z,6.33
2017-12-19T12:44:35.968Z,7.90
2017-12-19T12:45:37.312Z,7.57
2017-12-19T12:46:38.607Z,7.97
2017-12-19T12:47:39.942Z,7.60
2017-12-19T12:48:41.240Z,7.40
2017-12-19T12:49:42.548Z,6.90
2017-12-19T12:50:43.851Z,7.20
2017-12-19T12:51:45.888Z,7.10
2017-12-19T12:52:47.220Z,7.17
2017-12-19T12:53:48.508Z,7.30
2017-12-19T12:54:49.800Z,6.90
2017-12-19T12:55:51.096Z,6.60
2017-12-19T12:56:52.396Z,6.20
2017-12-19T12:57:53.768Z,6.60
2017-12-19T12:58:55.840Z,6.20
2017-12-19T12:59:57.907Z,6.10
2017-12-19T13:00:59.244Z,7.00
2017-12-19T13:02:00.559Z,6.70
2017-12-19T13:03:02.651Z,6.80
2017-12-19T13:04:04.019Z,6.83
2017-12-19T13:05:05.352Z,7.27
2017-12-19T13:06:06.832Z,7.17
2017-12-19T13:07:08.141Z,7.30
2017-12-19T13:08:09.719Z,7.97
2017-12-19T13:09:11.045Z,8.20
2017-12-19T13:10:12.376Z,8.00
2017-12-19T13:11:13.700Z,7.60
2017-12-19T13:12:15.000Z,7.47
2017-12-19T13:13:16.580Z,7.70
2017-12-19T13:14:18.649Z,7.37
2017-12-19T13:15:20.001Z,7.07
2017-12-19T13:16:21.320Z,7.33
2017-12-19T13:17:23.400Z,7.50
2017-12-19T13:18:24.740Z,8.33
2017-12-19T13:19:26.046Z,7.80
2017-12-19T13:20:27.372Z,7.60
2017-12-19T13:21:29.400Z,7.00
2017-12-19T13:22:30.706Z,6.73
2017-12-19T13:23:33.116Z,8.33
2017-12-19T13:24:34.412Z,6.87
2017-12-19T13:25:35.688Z,7.37
2017-12-19T13:26:36.968Z,6.37
2017-12-19T13:27:38.261Z,6.50
2017-12-19T13:28:39.588Z,6.53
2017-12-19T13:29:41.660Z,5.90
2017-12-19T13:30:43.739Z,5.47
2017-12-19T13:31:45.036Z,6.90
2017-12-19T13:32:46.390Z,6.50
2017-12-19T13:33:47.980Z,5.63
2017-12-19T13:34:49.276Z,5.53
2017-12-19T13:35:50.616Z,5.20
2017-12-19T13:36:51.928Z,5.40
2017-12-19T13:37:53.212Z,4.97
2017-12-19T13:38:55.268Z,5.20